Time;durP1;ratioP1;P1;durP2;ratioP2;P2;SDS_P1;SDS_P2;PMS_P1;PMS_P2;Temp;Humidity;BMP_temperature;BMP_pressure;BME280_temperature;BME280_humidity;BME280_pressure;Samples;Min_cycle;Max_cycle;Signal;HPM_P1;HPM_P2
2021/04/29 00:00:13;;;;;;;12.43;9.00;;;10.70;63.00;;;;;;4933950;29;20047;-64
2021/04/29 00:02:39;;;;;;;12.82;8.88;;;10.80;63.20;;;;;;4934295;29;20023;-67
2021/04/29 00:05:07;;;;;;;13.65;8.60;;;10.70;63.30;;;;;;4933289;29;20494;-65
2021/04/29 00:07:33;;;;;;;12.30;8.43;;;10.70;63.60;;;;;;4934315;29;20074;-66
2021/04/29 00:09:58;;;;;;;16.17;8.13;;;10.60;63.60;;;;;;4933807;29;20436;-66
2021/04/29 00:12:24;;;;;;;13.88;9.20;;;10.60;63.90;;;;;;4931944;29;20073;-68
2021/04/29 00:14:49;;;;;;;12.45;8.43;;;10.60;64.40;;;;;;4933996;29;20601;-67
2021/04/29 00:17:15;;;;;;;12.25;9.23;;;10.60;64.60;;;;;;4933896;29;20086;-67
2021/04/29 00:19:40;;;;;;;15.85;9.65;;;10.60;65.00;;;;;;4932835;29;20140;-68
2021/04/29 00:22:06;;;;;;;13.75;9.80;;;10.60;64.90;;;;;;4931746;29;20171;-68
2021/04/29 00:24:31;;;;;;;13.50;9.35;;;10.50;64.80;;;;;;4932335;29;20020;-67
2021/04/29 00:26:57;;;;;;;13.32;8.98;;;10.60;64.90;;;;;;4932762;29;20106;-68
2021/04/29 00:29:24;;;;;;;14.65;8.90;;;10.50;65.10;;;;;;4933569;29;20126;-67
2021/04/29 00:31:49;;;;;;;10.82;8.73;;;10.50;65.40;;;;;;4933172;29;20499;-67
2021/04/29 00:34:15;;;;;;;15.13;8.93;;;10.40;65.60;;;;;;4931624;29;20057;-68
2021/04/29 00:36:41;;;;;;;12.00;9.20;;;10.40;65.80;;;;;;4933360;29;20683;-67
2021/04/29 00:39:06;;;;;;;11.95;8.90;;;10.30;66.30;;;;;;4932457;29;20058;-66
2021/04/29 00:41:32;;;;;;;12.90;9.18;;;10.30;66.50;;;;;;4933481;29;20035;-67
2021/04/29 00:43:58;;;;;;;12.90;8.77;;;10.20;66.70;;;;;;4933307;29;20027;-67
2021/04/29 00:46:23;;;;;;;14.15;10.30;;;10.20;67.00;;;;;;4932609;29;20465;-66
2021/04/29 00:48:49;;;;;;;12.02;8.95;;;10.10;68.20;;;;;;4933188;29;20051;-68
2021/04/29 00:51:17;;;;;;;13.70;10.10;;;10.20;67.70;;;;;;4933210;29;20472;-68
2021/04/29 00:53:44;;;;;;;15.45;9.80;;;10.20;67.90;;;;;;4932815;29;20032;-68
2021/04/29 00:56:10;;;;;;;12.20;9.50;;;10.20;68.20;;;;;;4932001;29;20400;-69
2021/04/29 00:58:36;;;;;;;13.75;8.90;;;10.20;68.20;;;;;;4933131;29;20028;-68
2021/04/29 01:01:03;;;;;;;14.38;9.85;;;10.10;68.30;;;;;;4932187;29;20024;-67
2021/04/29 01:03:42;;;;;;;12.98;9.07;;;10.20;68.50;;;;;;4933572;29;20362;-68
2021/04/29 01:06:19;;;;;;;15.80;10.30;;;10.20;68.60;;;;;;4932782;29;20488;-68
2021/04/29 01:08:44;;;;;;;13.57;9.88;;;10.20;69.00;;;;;;4932173;29;20059;-66
2021/04/29 01:11:17;;;;;;;18.58;9.48;;;10.10;69.00;;;;;;4933045;29;20122;-68
2021/04/29 01:13:48;;;;;;;14.05;10.50;;;10.20;69.20;;;;;;4933118;29;20023;-66
2021/04/29 01:16:17;;;;;;;13.88;9.52;;;10.10;69.50;;;;;;4932539;29;20111;-67
2021/04/29 01:18:44;;;;;;;15.70;10.10;;;10.10;69.50;;;;;;4932851;29;20050;-65
2021/04/29 01:21:15;;;;;;;13.05;9.65;;;10.00;69.80;;;;;;4933195;29;20034;-67
2021/04/29 01:23:40;;;;;;;15.13;9.52;;;10.00;70.20;;;;;;4932931;29;20065;-67
2021/04/29 01:26:29;;;;;;;15.18;10.23;;;9.90;70.40;;;;;;4932889;29;20019;-67
2021/04/29 01:28:55;;;;;;;13.65;9.57;;;9.90;70.90;;;;;;4930940;29;20121;-66
2021/04/29 01:31:26;;;;;;;10.70;9.30;;;9.80;71.20;;;;;;4932796;29;20038;-67
2021/04/29 01:33:52;;;;;;;17.17;11.27;;;9.70;71.60;;;;;;4936170;29;20388;-66
2021/04/29 01:36:18;;;;;;;12.63;9.85;;;9.60;72.20;;;;;;4936088;29;20079;-65
2021/04/29 01:38:44;;;;;;;15.07;9.95;;;9.60;72.40;;;;;;4936536;29;20091;-65
2021/04/29 01:41:10;;;;;;;12.95;10.60;;;9.50;72.60;;;;;;4936844;29;20063;-67
2021/04/29 01:43:36;;;;;;;15.02;10.70;;;9.40;73.30;;;;;;4936009;29;20062;-67
2021/04/29 01:46:02;;;;;;;15.13;10.90;;;9.40;73.50;;;;;;4936405;29;20031;-66
2021/04/29 01:48:29;;;;;;;14.77;11.43;;;9.40;73.70;;;;;;4936558;29;20020;-66
2021/04/29 01:50:56;;;;;;;14.10;10.75;;;9.30;74.00;;;;;;4935616;29;20032;-67
2021/04/29 01:53:23;;;;;;;15.38;10.77;;;9.30;74.10;;;;;;4936516;29;20026;-65
2021/04/29 01:55:49;;;;;;;15.48;10.82;;;9.30;74.50;;;;;;4935102;29;20052;-66
2021/04/29 01:58:15;;;;;;;15.60;11.30;;;9.20;74.60;;;;;;4936406;29;20094;-66
2021/04/29 02:00:41;;;;;;;15.27;12.18;;;9.20;75.00;;;;;;4935663;29;20457;-66
2021/04/29 02:03:06;;;;;;;13.98;11.65;;;9.20;75.30;;;;;;4936150;29;20028;-66
2021/04/29 02:05:32;;;;;;;14.88;11.70;;;9.20;75.50;;;;;;4935591;29;20468;-66
2021/04/29 02:07:58;;;;;;;14.38;12.13;;;9.20;75.60;;;;;;4936000;29;20496;-65
2021/04/29 02:10:23;;;;;;;13.82;11.77;;;9.20;75.90;;;;;;4935964;29;20016;-65
2021/04/29 02:12:54;;;;;;;16.58;10.93;;;9.10;75.90;;;;;;4934175;29;20120;-66
2021/04/29 02:15:26;;;;;;;13.70;11.15;;;9.10;75.70;;;;;;4936113;29;20665;-67
2021/04/29 02:18:13;;;;;;;25.10;12.48;;;9.10;75.90;;;;;;4933820;29;20031;-65
2021/04/29 02:20:44;;;;;;;18.58;12.63;;;9.10;76.40;;;;;;4935878;29;20028;-65
2021/04/29 02:23:13;;;;;;;15.18;11.70;;;9.20;76.20;;;;;;4936130;29;20114;-65
2021/04/29 02:25:40;;;;;;;17.10;12.77;;;9.20;76.50;;;;;;4935325;29;20016;-67
2021/04/29 02:28:06;;;;;;;16.17;12.05;;;9.10;76.80;;;;;;4935459;29;20065;-68
2021/04/29 02:30:32;;;;;;;15.35;11.43;;;9.10;77.00;;;;;;4935707;29;20076;-65
2021/04/29 02:32:59;;;;;;;13.80;11.75;;;9.10;77.10;;;;;;4934892;29;20063;-68
2021/04/29 02:35:25;;;;;;;18.35;11.88;;;9.20;77.10;;;;;;4935684;29;20032;-66
2021/04/29 02:37:53;;;;;;;15.68;12.23;;;9.20;77.10;;;;;;4935509;29;20152;-67
2021/04/29 02:40:19;;;;;;;15.57;12.02;;;9.20;77.20;;;;;;4935014;29;20016;-68
2021/04/29 02:42:45;;;;;;;14.32;11.98;;;9.20;77.10;;;;;;4935206;29;20031;-66
2021/04/29 02:45:14;;;;;;;15.10;12.02;;;9.20;77.20;;;;;;4935342;29;20027;-67
2021/04/29 02:47:42;;;;;;;15.10;12.43;;;9.20;77.20;;;;;;4934687;29;20036;-67
2021/04/29 02:50:11;;;;;;;16.33;12.50;;;9.30;77.40;;;;;;4935061;29;20043;-68
2021/04/29 02:52:41;;;;;;;16.65;11.35;;;9.20;77.40;;;;;;4935534;29;20122;-65
2021/04/29 02:55:08;;;;;;;16.15;12.25;;;9.30;77.50;;;;;;4933810;29;20377;-67
2021/04/29 02:57:33;;;;;;;15.55;12.32;;;9.30;77.50;;;;;;4935306;29;20039;-65
2021/04/29 02:59:59;;;;;;;15.05;12.05;;;9.30;77.40;;;;;;4934332;29;20758;-66
2021/04/29 03:02:25;;;;;;;13.07;11.45;;;9.30;77.40;;;;;;4935172;29;20484;-66
2021/04/29 03:04:50;;;;;;;16.20;12.30;;;9.30;77.50;;;;;;4935028;29;20419;-66
2021/04/29 03:07:16;;;;;;;15.43;11.55;;;9.30;77.60;;;;;;4934736;29;20031;-67
2021/04/29 03:09:42;;;;;;;22.88;14.30;;;9.30;77.70;;;;;;4933746;29;20043;-67
2021/04/29 03:12:08;;;;;;;14.18;12.05;;;9.40;77.90;;;;;;4934572;29;20397;-67
2021/04/29 03:14:33;;;;;;;15.23;13.30;;;9.30;77.80;;;;;;4934506;29;20468;-67
2021/04/29 03:16:59;;;;;;;17.25;12.18;;;9.40;78.30;;;;;;4934817;29;20027;-67
2021/04/29 03:19:25;;;;;;;16.75;12.45;;;9.40;78.20;;;;;;4934788;29;20063;-67
2021/04/29 03:21:50;;;;;;;20.38;12.05;;;9.30;78.40;;;;;;4934263;29;20023;-68
2021/04/29 03:24:16;;;;;;;15.38;12.43;;;9.40;78.90;;;;;;4934909;29;20024;-68
2021/04/29 03:26:42;;;;;;;13.85;11.68;;;9.30;78.90;;;;;;4934727;29;20111;-67
2021/04/29 03:29:07;;;;;;;17.98;12.65;;;9.30;79.10;;;;;;4933825;29;20030;-67
2021/04/29 03:31:33;;;;;;;13.18;11.77;;;9.30;79.30;;;;;;4933452;29;20035;-67
2021/04/29 03:33:59;;;;;;;14.90;12.30;;;9.30;79.30;;;;;;4934410;29;20171;-67
2021/04/29 03:36:25;;;;;;;14.52;11.98;;;9.30;79.30;;;;;;4933852;29;20543;-68
2021/04/29 03:38:51;;;;;;;15.55;12.80;;;9.40;79.60;;;;;;4933054;29;20027;-67
2021/04/29 03:41:17;;;;;;;14.35;11.82;;;9.40;79.80;;;;;;4934797;29;20527;-67
2021/04/29 03:43:42;;;;;;;14.55;12.35;;;9.40;79.50;;;;;;4933747;29;20031;-68
2021/04/29 03:46:08;;;;;;;12.85;11.45;;;9.40;79.40;;;;;;4933395;29;20404;-66
2021/04/29 03:48:34;;;;;;;15.35;11.50;;;9.40;79.30;;;;;;4934295;29;20544;-67
2021/04/29 03:50:59;;;;;;;15.82;12.43;;;9.40;79.40;;;;;;4931999;29;20095;-67
2021/04/29 03:53:25;;;;;;;13.70;11.68;;;9.40;79.50;;;;;;4934266;29;20063;-67
2021/04/29 03:55:50;;;;;;;14.20;11.88;;;9.50;79.30;;;;;;4933967;29;20031;-67
2021/04/29 03:58:16;;;;;;;16.50;12.60;;;9.50;79.30;;;;;;4933649;29;20488;-66
2021/04/29 04:00:42;;;;;;;13.77;12.38;;;9.50;79.10;;;;;;4933820;29;20063;-68
2021/04/29 04:03:08;;;;;;;15.10;11.73;;;9.60;78.80;;;;;;4933275;29;20036;-66
2021/04/29 04:05:33;;;;;;;16.75;13.15;;;9.50;78.50;;;;;;4932924;29;20030;-65
2021/04/29 04:07:59;;;;;;;15.63;12.45;;;9.50;78.40;;;;;;4932716;29;20854;-66
2021/04/29 04:10:24;;;;;;;16.00;13.23;;;9.50;78.50;;;;;;4933190;29;20047;-68
2021/04/29 04:12:50;;;;;;;14.65;11.75;;;9.50;78.60;;;;;;4933463;29;20562;-66
2021/04/29 04:15:16;;;;;;;16.20;12.93;;;9.50;78.90;;;;;;4933913;29;20019;-67
2021/04/29 04:17:41;;;;;;;17.38;13.52;;;9.50;79.50;;;;;;4933247;29;20035;-66
2021/04/29 04:20:08;;;;;;;17.95;13.32;;;9.50;80.20;;;;;;4932987;29;20032;-65
2021/04/29 04:22:33;;;;;;;15.32;12.73;;;9.50;80.30;;;;;;4932462;29;20020;-66
2021/04/29 04:24:59;;;;;;;16.20;13.45;;;9.40;80.60;;;;;;4932470;29;20519;-66
2021/04/29 04:27:24;;;;;;;15.20;12.57;;;9.40;80.60;;;;;;4933351;29;20031;-67
2021/04/29 04:29:50;;;;;;;14.27;12.60;;;9.40;80.90;;;;;;4931979;29;20040;-67
2021/04/29 04:32:15;;;;;;;19.20;14.20;;;9.40;81.50;;;;;;4932750;29;20046;-67
2021/04/29 04:34:41;;;;;;;17.08;14.57;;;9.30;82.40;;;;;;4933658;29;20024;-67
2021/04/29 04:37:06;;;;;;;18.77;14.07;;;9.20;83.50;;;;;;4933418;29;20503;-65
2021/04/29 04:39:33;;;;;;;18.23;13.02;;;9.20;84.60;;;;;;4932950;29;20020;-65
2021/04/29 04:41:59;;;;;;;18.52;14.30;;;9.10;85.20;;;;;;4933348;29;20024;-65
2021/04/29 04:44:24;;;;;;;18.00;14.43;;;8.90;86.20;;;;;;4933099;29;20075;-66
2021/04/29 04:46:50;;;;;;;19.05;14.07;;;8.80;87.50;;;;;;4932553;29;20039;-67
2021/04/29 04:49:16;;;;;;;18.80;14.15;;;8.70;88.00;;;;;;4933356;29;20055;-66
2021/04/29 04:51:42;;;;;;;19.95;16.10;;;8.60;88.90;;;;;;4931534;29;20078;-66
2021/04/29 04:54:07;;;;;;;18.55;16.10;;;8.50;89.70;;;;;;4932605;29;20032;-66
2021/04/29 04:56:33;;;;;;;18.58;14.98;;;8.50;89.70;;;;;;4933263;29;20034;-66
2021/04/29 04:58:59;;;;;;;17.10;14.23;;;8.50;90.00;;;;;;4932747;29;20055;-65
2021/04/29 05:01:27;;;;;;;19.20;15.30;;;8.60;90.00;;;;;;4932263;29;20050;-66
2021/04/29 05:03:54;;;;;;;19.42;14.95;;;8.60;90.20;;;;;;4932911;29;20419;-66
2021/04/29 05:06:19;;;;;;;23.10;15.18;;;8.60;90.10;;;;;;4931241;29;20020;-67
2021/04/29 05:08:45;;;;;;;19.25;14.70;;;8.70;90.30;;;;;;4932446;29;20076;-67
2021/04/29 05:11:10;;;;;;;19.77;16.05;;;8.60;90.30;;;;;;4933065;29;20158;-65
2021/04/29 05:13:36;;;;;;;18.55;16.27;;;8.70;90.60;;;;;;4930083;29;20051;-67
2021/04/29 05:16:02;;;;;;;20.35;15.95;;;8.70;90.70;;;;;;4932642;29;20031;-67
2021/04/29 05:18:28;;;;;;;24.58;15.85;;;8.70;90.70;;;;;;4932789;29;20046;-65
2021/04/29 05:20:54;;;;;;;21.50;15.43;;;8.70;90.70;;;;;;4932383;29;20028;-67
2021/04/29 05:23:19;;;;;;;18.73;15.60;;;8.80;90.60;;;;;;4933179;29;20024;-66
2021/04/29 05:25:45;;;;;;;19.58;16.10;;;8.80;90.80;;;;;;4932475;29;20027;-67
2021/04/29 05:28:10;;;;;;;21.60;16.63;;;8.90;91.00;;;;;;4932422;29;20035;-65
2021/04/29 05:30:36;;;;;;;22.35;15.82;;;8.90;91.00;;;;;;4932583;29;20027;-67
2021/04/29 05:33:02;;;;;;;22.92;16.35;;;8.90;91.10;;;;;;4932768;29;20502;-67
2021/04/29 05:35:27;;;;;;;18.98;16.88;;;8.90;91.10;;;;;;4932222;29;20482;-67
2021/04/29 05:37:54;;;;;;;22.30;17.67;;;9.00;91.30;;;;;;4931212;29;20020;-65
2021/04/29 05:40:20;;;;;;;20.48;16.42;;;9.00;91.30;;;;;;4931347;29;20090;-64
2021/04/29 05:42:46;;;;;;;21.65;16.33;;;9.10;91.30;;;;;;4930954;29;20115;-66
2021/04/29 05:45:12;;;;;;;20.02;17.73;;;9.10;91.20;;;;;;4932593;29;20047;-64
2021/04/29 05:47:39;;;;;;;20.70;16.40;;;9.10;91.10;;;;;;4932652;29;20062;-67
2021/04/29 05:50:05;;;;;;;20.45;17.95;;;9.10;91.10;;;;;;4931925;29;20028;-66
2021/04/29 05:52:31;;;;;;;19.08;17.08;;;9.20;91.20;;;;;;4929433;29;20511;-65
2021/04/29 05:54:57;;;;;;;21.10;18.00;;;9.20;91.20;;;;;;4931237;29;20032;-67
2021/04/29 05:57:23;;;;;;;20.38;18.17;;;9.30;91.30;;;;;;4931664;29;20155;-67
2021/04/29 05:59:49;;;;;;;21.65;18.20;;;9.30;91.30;;;;;;4931701;29;20047;-68
2021/04/29 06:02:14;;;;;;;22.65;18.40;;;9.40;91.30;;;;;;4932106;29;20384;-66
2021/04/29 06:04:40;;;;;;;21.80;18.60;;;9.30;91.20;;;;;;4931542;29;20036;-66
2021/04/29 06:07:06;;;;;;;23.63;20.45;;;9.30;91.30;;;;;;4932613;29;20102;-66
2021/04/29 06:09:32;;;;;;;24.65;18.88;;;9.30;91.40;;;;;;4931537;29;20468;-67
2021/04/29 06:11:59;;;;;;;23.70;19.50;;;9.20;91.40;;;;;;4930157;29;20114;-67
2021/04/29 06:14:25;;;;;;;22.95;18.58;;;9.20;91.70;;;;;;4928427;29;20035;-67
2021/04/29 06:16:50;;;;;;;23.15;18.67;;;9.30;91.70;;;;;;4925816;29;20024;-67
2021/04/29 06:19:18;;;;;;;57.15;21.55;;;9.30;91.70;;;;;;4932890;29;20420;-67
2021/04/29 06:21:44;;;;;;;48.92;29.88;;;9.20;91.90;;;;;;4934079;29;20409;-66
2021/04/29 06:24:10;;;;;;;28.10;22.45;;;9.20;92.20;;;;;;4934758;29;20047;-67
2021/04/29 06:26:36;;;;;;;25.40;19.60;;;9.30;92.30;;;;;;4935432;29;20146;-67
2021/04/29 06:29:02;;;;;;;23.10;20.20;;;9.30;92.20;;;;;;4935711;29;20051;-66
2021/04/29 06:31:27;;;;;;;22.10;18.10;;;9.30;92.60;;;;;;4933402;29;20035;-67
2021/04/29 06:33:53;;;;;;;22.63;19.23;;;9.30;92.40;;;;;;4933922;29;20067;-66
2021/04/29 06:36:18;;;;;;;20.80;18.60;;;9.30;92.20;;;;;;4933896;29;20091;-67
2021/04/29 06:38:44;;;;;;;24.90;20.08;;;9.30;92.30;;;;;;4934593;29;20362;-66
2021/04/29 06:41:10;;;;;;;26.85;20.42;;;9.40;92.20;;;;;;4934025;29;20388;-67
2021/04/29 06:43:37;;;;;;;25.92;20.90;;;9.50;92.20;;;;;;4933327;29;20035;-68
2021/04/29 06:46:03;;;;;;;53.45;21.48;;;9.60;92.00;;;;;;4933440;29;20560;-70
2021/04/29 06:48:29;;;;;;;102.80;26.42;;;9.60;92.00;;;;;;4935086;29;20034;-67
2021/04/29 06:50:55;;;;;;;22.63;19.42;;;9.60;92.20;;;;;;4934616;29;20028;-68
2021/04/29 06:53:21;;;;;;;21.63;18.80;;;9.60;92.20;;;;;;4933846;29;20042;-68
2021/04/29 06:55:48;;;;;;;23.42;19.42;;;9.60;92.10;;;;;;4934853;29;20019;-70
2021/04/29 06:58:13;;;;;;;23.60;19.50;;;9.70;92.20;;;;;;4935205;29;20028;-68
2021/04/29 07:00:39;;;;;;;25.58;20.95;;;9.80;92.10;;;;;;4933847;29;20126;-68
2021/04/29 07:03:05;;;;;;;22.90;20.20;;;9.80;92.10;;;;;;4934654;29;20035;-67
2021/04/29 07:05:30;;;;;;;27.77;22.20;;;9.90;91.90;;;;;;4934558;29;20043;-68
2021/04/29 07:07:56;;;;;;;35.17;20.95;;;9.90;92.00;;;;;;4932390;29;20039;-68
2021/04/29 07:10:23;;;;;;;24.83;20.52;;;10.00;92.10;;;;;;4932892;29;20471;-68
2021/04/29 07:12:49;;;;;;;25.23;20.15;;;10.00;92.20;;;;;;4934009;29;20043;-68
2021/04/29 07:15:16;;;;;;;23.20;20.27;;;9.90;92.00;;;;;;4934294;29;20024;-67
2021/04/29 07:17:42;;;;;;;22.85;19.60;;;10.00;92.10;;;;;;4934491;29;20567;-67
2021/04/29 07:20:08;;;;;;;25.27;22.23;;;10.00;92.10;;;;;;4933863;29;20038;-67
2021/04/29 07:22:34;;;;;;;24.38;21.60;;;10.10;92.10;;;;;;4934101;29;20047;-67
2021/04/29 07:25:00;;;;;;;24.17;18.98;;;10.10;92.00;;;;;;4934146;29;20075;-67
2021/04/29 07:27:26;;;;;;;23.73;19.77;;;10.20;91.90;;;;;;4933521;29;20064;-67
2021/04/29 07:29:51;;;;;;;25.67;20.48;;;10.30;91.80;;;;;;4933945;29;20059;-67
2021/04/29 07:32:18;;;;;;;23.85;19.98;;;10.40;92.10;;;;;;4934468;29;20047;-66
2021/04/29 07:34:44;;;;;;;22.92;19.02;;;10.60;91.60;;;;;;4933624;29;20026;-66
2021/04/29 07:37:10;;;;;;;20.67;18.38;;;10.60;91.30;;;;;;4934634;29;20123;-67
2021/04/29 07:39:36;;;;;;;20.83;18.70;;;10.70;91.20;;;;;;4932884;29;20155;-68
2021/04/29 07:42:01;;;;;;;23.42;18.92;;;10.90;91.20;;;;;;4933251;29;20126;-68
2021/04/29 07:44:27;;;;;;;21.27;18.98;;;11.00;91.20;;;;;;4934080;29;20417;-68
2021/04/29 07:46:53;;;;;;;20.65;18.30;;;11.00;91.00;;;;;;4932657;29;20445;-68
2021/04/29 07:49:18;;;;;;;20.15;18.15;;;11.00;91.00;;;;;;4931839;29;20028;-67
2021/04/29 07:51:44;;;;;;;22.08;18.10;;;11.00;90.90;;;;;;4932440;29;20044;-68
2021/04/29 07:54:13;;;;;;;20.40;17.30;;;11.00;90.80;;;;;;4933055;29;20016;-67
2021/04/29 07:56:39;;;;;;;20.88;17.55;;;11.00;90.70;;;;;;4933163;29;20034;-68
2021/04/29 07:59:05;;;;;;;18.02;15.63;;;11.00;90.60;;;;;;4933944;29;20055;-66
2021/04/29 08:01:31;;;;;;;19.35;16.83;;;11.00;90.60;;;;;;4930984;29;20023;-68
2021/04/29 08:04:00;;;;;;;19.92;16.52;;;11.00;90.50;;;;;;4932038;29;20035;-68
2021/04/29 08:06:26;;;;;;;19.17;16.88;;;11.00;90.50;;;;;;4933360;29;20130;-67
2021/04/29 08:08:51;;;;;;;21.42;17.80;;;11.00;90.50;;;;;;4933158;29;20027;-66
2021/04/29 08:11:17;;;;;;;20.35;18.33;;;11.00;90.60;;;;;;4931585;29;20477;-69
2021/04/29 08:13:44;;;;;;;19.80;17.52;;;11.10;90.70;;;;;;4933546;29;20035;-66
2021/04/29 08:16:09;;;;;;;21.77;18.05;;;11.10;90.70;;;;;;4933372;29;20087;-67
2021/04/29 08:18:36;;;;;;;20.48;17.90;;;11.10;90.60;;;;;;4932526;29;20019;-66
2021/04/29 08:21:03;;;;;;;20.05;16.85;;;11.10;90.50;;;;;;4933055;29;20055;-68
2021/04/29 08:23:30;;;;;;;21.17;18.02;;;11.20;90.60;;;;;;4931596;29;20039;-68
2021/04/29 08:25:56;;;;;;;21.23;17.67;;;11.10;90.50;;;;;;4912398;29;20067;-69
2021/04/29 08:28:21;;;;;;;19.80;17.10;;;11.10;90.50;;;;;;4913935;29;20432;-70
2021/04/29 08:30:47;;;;;;;18.13;16.23;;;11.10;90.60;;;;;;4918607;29;20051;-68
2021/04/29 08:33:12;;;;;;;19.45;16.02;;;11.10;90.50;;;;;;4932994;29;20040;-66
2021/04/29 08:35:38;;;;;;;17.38;15.57;;;11.00;90.30;;;;;;4933162;29;20078;-67
2021/04/29 08:38:03;;;;;;;22.27;17.98;;;11.00;90.40;;;;;;4932411;29;20042;-67
2021/04/29 08:40:30;;;;;;;20.80;17.45;;;11.00;90.90;;;;;;4933312;29;20019;-69
2021/04/29 08:42:56;;;;;;;22.90;18.25;;;11.00;90.60;;;;;;4930834;29;20503;-68
2021/04/29 08:45:22;;;;;;;18.88;16.88;;;11.10;90.60;;;;;;4932867;29;20027;-68
2021/04/29 08:47:56;;;;;;;18.63;16.63;;;11.20;90.60;;;;;;4931499;29;20476;-69
2021/04/29 08:50:24;;;;;;;18.20;14.52;;;11.30;90.50;;;;;;4932041;29;20028;-69
2021/04/29 08:52:50;;;;;;;18.00;14.52;;;11.30;90.20;;;;;;4931995;29;20031;-68
2021/04/29 08:55:19;;;;;;;18.23;16.08;;;11.30;90.20;;;;;;4931455;29;20535;-67
2021/04/29 08:57:45;;;;;;;18.67;16.77;;;11.30;90.30;;;;;;4932627;29;20046;-70
2021/04/29 09:00:13;;;;;;;16.85;15.15;;;11.30;90.30;;;;;;4931409;29;20412;-69
2021/04/29 09:02:40;;;;;;;16.65;14.95;;;11.30;90.20;;;;;;4932397;29;20385;-68
2021/04/29 09:05:30;;;;;;;16.38;14.63;;;11.40;90.10;;;;;;4932416;29;20869;-69
2021/04/29 09:07:57;;;;;;;19.17;17.33;;;11.40;90.00;;;;;;4932720;29;20036;-69
2021/04/29 09:10:31;;;;;;;16.25;14.52;;;11.40;90.10;;;;;;4931568;29;20134;-69
2021/04/29 09:12:58;;;;;;;18.00;14.73;;;11.40;89.70;;;;;;4931768;29;20039;-69
2021/04/29 09:15:29;;;;;;;18.25;15.45;;;11.40;89.30;;;;;;4931900;29;20150;-69
2021/04/29 09:18:08;;;;;;;16.00;14.48;;;11.40;89.40;;;;;;4932216;29;20075;-68
2021/04/29 09:20:36;;;;;;;17.70;15.60;;;11.50;89.50;;;;;;4930307;29;20035;-67
2021/04/29 09:23:07;;;;;;;16.45;14.75;;;11.50;89.10;;;;;;4932599;29;20104;-67
2021/04/29 09:25:36;;;;;;;16.38;14.68;;;11.50;88.90;;;;;;4932743;29;20083;-69
2021/04/29 09:28:03;;;;;;;19.55;16.35;;;11.50;88.40;;;;;;4931534;29;20027;-68
2021/04/29 09:30:30;;;;;;;18.73;15.55;;;11.50;88.70;;;;;;4931687;29;20089;-67
2021/04/29 09:33:02;;;;;;;15.73;14.13;;;11.50;88.70;;;;;;4931674;29;20496;-66
2021/04/29 09:35:28;;;;;;;17.35;14.73;;;11.50;88.30;;;;;;4931696;29;20023;-66
2021/04/29 09:37:59;;;;;;;19.17;15.93;;;11.40;88.30;;;;;;4932106;29;20037;-65
2021/04/29 09:40:33;;;;;;;20.13;17.25;;;11.30;88.70;;;;;;4930341;29;20027;-66
2021/04/29 09:42:59;;;;;;;17.88;15.68;;;11.20;89.20;;;;;;4925450;29;20031;-67
2021/04/29 09:45:28;;;;;;;17.23;15.43;;;11.10;89.40;;;;;;4932123;29;20038;-68
2021/04/29 09:48:00;;;;;;;17.95;16.10;;;11.10;89.60;;;;;;4931248;29;20675;-68
2021/04/29 09:50:33;;;;;;;19.45;15.90;;;11.00;89.80;;;;;;4930479;29;20047;-69
2021/04/29 09:53:00;;;;;;;20.75;17.15;;;10.90;89.90;;;;;;4932405;29;20068;-69
2021/04/29 09:55:32;;;;;;;20.45;17.73;;;10.80;90.00;;;;;;4935315;29;20488;-69
2021/04/29 09:58:17;;;;;;;193.57;31.45;;;10.80;90.20;;;;;;4934524;29;20080;-67
2021/04/29 10:00:48;;;;;;;22.83;17.80;;;10.80;90.60;;;;;;4935544;29;20044;-67
2021/04/29 10:03:15;;;;;;;19.90;16.48;;;10.70;90.60;;;;;;4934012;29;20024;-68
2021/04/29 10:05:41;;;;;;;19.15;16.48;;;10.70;90.60;;;;;;4934618;29;20032;-67
2021/04/29 10:08:10;;;;;;;21.67;16.95;;;10.80;90.60;;;;;;4935859;29;20026;-68
2021/04/29 10:10:39;;;;;;;21.25;18.70;;;10.80;90.60;;;;;;4935345;29;20027;-69
2021/04/29 10:13:07;;;;;;;21.08;17.42;;;10.80;90.80;;;;;;4935162;29;20036;-68
2021/04/29 10:15:38;;;;;;;21.45;18.33;;;10.80;90.80;;;;;;4935513;29;20042;-71
2021/04/29 10:18:06;;;;;;;19.17;16.48;;;10.90;90.70;;;;;;4933862;29;20035;-69
2021/04/29 10:20:33;;;;;;;20.27;18.10;;;10.80;90.70;;;;;;4933159;29;20035;-70
2021/04/29 10:23:00;;;;;;;21.65;18.08;;;10.80;90.90;;;;;;4934111;29;20107;-68
2021/04/29 10:25:30;;;;;;;21.33;18.10;;;10.90;90.90;;;;;;4934936;29;20532;-69
2021/04/29 10:27:57;;;;;;;21.90;18.60;;;10.90;90.90;;;;;;4933100;29;20024;-68
2021/04/29 10:30:36;;;;;;;22.40;19.38;;;11.00;90.90;;;;;;4934196;29;20032;-69
2021/04/29 10:33:19;;;;;;;20.60;18.40;;;11.00;90.80;;;;;;4934778;29;20114;-68
2021/04/29 10:36:10;;;;;;;21.35;18.08;;;11.10;90.80;;;;;;4934654;29;20381;-68
2021/04/29 10:38:36;;;;;;;21.85;17.73;;;11.10;90.70;;;;;;4934111;29;20058;-68
2021/04/29 10:41:23;;;;;;;23.23;17.95;;;11.10;90.70;;;;;;4934145;29;20016;-68
2021/04/29 10:43:51;;;;;;;19.30;17.23;;;11.00;90.90;;;;;;4932921;29;20024;-69
2021/04/29 10:46:28;;;;;;;20.85;18.30;;;11.00;91.00;;;;;;4933783;29;20023;-69
2021/04/29 10:48:54;;;;;;;23.65;17.33;;;11.00;91.20;;;;;;4932666;29;20043;-68
2021/04/29 10:51:41;;;;;;;26.33;18.83;;;10.90;91.30;;;;;;4932351;29;20064;-67
2021/04/29 10:54:08;;;;;;;22.00;17.58;;;10.90;91.50;;;;;;4925884;29;20119;-70
2021/04/29 10:56:33;;;;;;;20.02;17.80;;;10.90;91.50;;;;;;4933770;29;20123;-67
2021/04/29 10:59:09;;;;;;;19.80;17.58;;;10.90;91.60;;;;;;4933210;29;20670;-66
2021/04/29 11:01:45;;;;;;;18.88;16.92;;;11.00;91.80;;;;;;4933458;29;20115;-69
2021/04/29 11:04:19;;;;;;;21.05;17.60;;;11.10;91.60;;;;;;4935089;29;20688;-67
2021/04/29 11:06:46;;;;;;;20.98;17.85;;;11.10;91.60;;;;;;4932432;29;20035;-70
2021/04/29 11:09:17;;;;;;;79.60;21.67;;;11.20;91.60;;;;;;4934476;29;20211;-70
2021/04/29 11:11:45;;;;;;;18.95;16.17;;;11.20;91.70;;;;;;4934725;29;20043;-71
2021/04/29 11:14:13;;;;;;;19.17;16.30;;;11.20;91.60;;;;;;4931935;29;20031;-67
2021/04/29 11:16:53;;;;;;;16.95;15.05;;;11.20;91.60;;;;;;4934177;29;20035;-70
2021/04/29 11:19:35;;;;;;;18.45;16.55;;;11.10;91.50;;;;;;4933169;29;20476;-70
2021/04/29 11:22:06;;;;;;;18.13;15.82;;;11.10;91.90;;;;;;4933867;29;20176;-68
2021/04/29 11:24:33;;;;;;;18.75;16.90;;;11.10;91.80;;;;;;4933018;29;20031;-68
2021/04/29 11:26:59;;;;;;;16.58;14.98;;;11.20;91.70;;;;;;4922735;29;20110;-69
2021/04/29 11:29:35;;;;;;;15.27;13.77;;;11.20;91.50;;;;;;4934036;29;20064;-68
2021/04/29 11:32:01;;;;;;;13.95;12.65;;;11.20;91.40;;;;;;4933475;29;20667;-68
2021/04/29 11:34:26;;;;;;;13.43;11.60;;;11.10;91.40;;;;;;4933006;29;20042;-68
2021/04/29 11:36:59;;;;;;;15.40;13.77;;;11.00;91.40;;;;;;4931708;29;20023;-68
2021/04/29 11:39:25;;;;;;;33.97;22.83;;;10.90;91.40;;;;;;4933184;29;20836;-67
2021/04/29 11:41:51;;;;;;;13.65;11.00;;;10.80;91.50;;;;;;4931723;29;20122;-66
2021/04/29 11:44:16;;;;;;;16.42;14.60;;;10.60;91.40;;;;;;4933960;29;20098;-66
2021/04/29 11:46:43;;;;;;;12.60;11.02;;;10.30;91.60;;;;;;4933574;29;20020;-69
2021/04/29 11:49:09;;;;;;;14.48;12.18;;;10.20;91.70;;;;;;4931547;29;20024;-70
2021/04/29 11:51:46;;;;;;;12.18;10.98;;;10.10;91.80;;;;;;4933780;29;20071;-67
2021/04/29 11:54:16;;;;;;;10.73;9.65;;;10.00;92.10;;;;;;4934014;29;20032;-66
2021/04/29 11:56:46;;;;;;;12.13;10.20;;;10.10;92.10;;;;;;4932029;29;20897;-68
2021/04/29 11:59:13;;;;;;;13.32;11.48;;;10.20;92.00;;;;;;4931352;29;20046;-68
2021/04/29 12:01:40;;;;;;;25.88;11.93;;;10.30;91.70;;;;;;4931735;29;20032;-67
2021/04/29 12:04:15;;;;;;;13.55;11.63;;;10.20;91.80;;;;;;4933509;29;20052;-67
2021/04/29 12:06:58;;;;;;;12.48;11.20;;;10.20;91.70;;;;;;4932923;29;20034;-68
2021/04/29 12:09:25;;;;;;;17.17;12.23;;;10.30;91.40;;;;;;4931419;29;20488;-67
2021/04/29 12:11:51;;;;;;;15.30;11.18;;;10.30;91.30;;;;;;4923192;29;20052;-67
2021/04/29 12:14:25;;;;;;;11.75;10.55;;;10.30;91.30;;;;;;4927826;29;20023;-65
2021/04/29 12:16:58;;;;;;;13.45;10.45;;;10.30;91.00;;;;;;4932040;29;20094;-66
2021/04/29 12:19:28;;;;;;;11.40;10.30;;;10.30;91.00;;;;;;4933540;29;20016;-66
2021/04/29 12:21:55;;;;;;;13.15;11.05;;;10.30;90.90;;;;;;4932272;29;20031;-66
2021/04/29 12:24:20;;;;;;;12.00;10.77;;;10.10;90.90;;;;;;4931667;29;20404;-67
2021/04/29 12:26:47;;;;;;;13.48;11.27;;;10.00;91.20;;;;;;4931994;29;20023;-67
2021/04/29 12:29:14;;;;;;;11.07;9.25;;;9.90;91.30;;;;;;4932730;29;20024;-65
2021/04/29 12:31:52;;;;;;;9.20;8.25;;;9.80;91.30;;;;;;4933012;29;20070;-66
2021/04/29 12:34:20;;;;;;;9.57;8.65;;;9.80;91.30;;;;;;4933704;29;20035;-66